createdAt,value
2023-06-21T00:00:05.132Z,26.42
2023-06-21T00:01:05.188Z,26.39
2023-06-21T00:02:05.123Z,26.26
2023-06-21T00:03:05.257Z,26.15
2023-06-21T00:04:05.451Z,26.17
2023-06-21T00:05:05.288Z,26.24
2023-06-21T00:06:05.288Z,26.19
2023-06-21T00:07:05.463Z,26.19
2023-06-21T00:08:05.442Z,26.16
2023-06-21T00:09:05.507Z,26.01
2023-06-21T00:10:05.578Z,25.83
2023-06-21T00:11:05.556Z,25.73
2023-06-21T00:12:05.635Z,25.59
2023-06-21T00:13:05.639Z,25.55
2023-06-21T00:14:05.684Z,25.54
2023-06-21T00:15:05.724Z,25.50
2023-06-21T00:16:05.694Z,25.47
2023-06-21T00:17:05.768Z,25.50
2023-06-21T00:18:05.844Z,25.59
2023-06-21T00:19:05.759Z,25.67
2023-06-21T00:20:05.883Z,25.67
2023-06-21T00:21:05.943Z,25.64
2023-06-21T00:22:06.055Z,25.58
2023-06-21T00:23:06.072Z,25.70
2023-06-21T00:24:06.171Z,25.76
2023-06-21T00:25:06.249Z,25.80
2023-06-21T00:26:06.278Z,25.86
2023-06-21T00:27:06.330Z,25.83
2023-06-21T00:28:06.373Z,25.83
2023-06-21T00:29:06.456Z,25.72
2023-06-21T00:30:06.431Z,25.60
2023-06-21T00:31:06.500Z,25.53
2023-06-21T00:32:06.592Z,25.52
2023-06-21T00:33:06.642Z,25.45
2023-06-21T00:34:06.647Z,25.41
2023-06-21T00:35:06.680Z,25.36
2023-06-21T00:36:06.601Z,25.20
2023-06-21T00:37:06.689Z,25.28
2023-06-21T00:38:06.670Z,25.30
2023-06-21T00:39:06.741Z,25.34
2023-06-21T00:40:06.635Z,25.19
2023-06-21T00:41:06.612Z,25.11
2023-06-21T00:42:06.647Z,25.13
2023-06-21T00:43:06.729Z,25.26
2023-06-21T00:44:06.602Z,25.24
2023-06-21T00:45:06.649Z,25.24
2023-06-21T00:46:06.694Z,25.31
2023-06-21T00:47:06.761Z,25.30
2023-06-21T00:48:06.732Z,25.31
2023-06-21T00:49:06.718Z,25.42
2023-06-21T00:50:06.646Z,25.34
2023-06-21T00:51:06.659Z,25.35
2023-06-21T00:52:06.704Z,25.33
2023-06-21T00:53:06.659Z,25.31
2023-06-21T00:54:06.634Z,25.33
2023-06-21T00:55:06.638Z,25.41
2023-06-21T00:56:06.648Z,25.51
2023-06-21T00:57:06.687Z,25.47
2023-06-21T00:58:06.666Z,25.54
2023-06-21T00:59:06.763Z,25.53
2023-06-21T01:00:06.715Z,25.43
2023-06-21T01:01:06.897Z,25.39
2023-06-21T01:02:06.894Z,25.46
2023-06-21T01:03:06.954Z,25.53
2023-06-21T01:04:06.901Z,25.49
2023-06-21T01:05:06.988Z,25.49
2023-06-21T01:06:06.916Z,25.44
2023-06-21T01:07:06.927Z,25.37
2023-06-21T01:08:07.045Z,25.43
2023-06-21T01:09:07.051Z,25.52
2023-06-21T01:10:07.141Z,25.53
2023-06-21T01:11:07.197Z,25.52
2023-06-21T01:12:07.273Z,25.55
2023-06-21T01:13:07.276Z,25.55
2023-06-21T01:14:07.321Z,25.56
2023-06-21T01:15:07.307Z,25.63
2023-06-21T01:16:07.253Z,25.60
2023-06-21T01:17:07.370Z,25.68
2023-06-21T01:18:07.380Z,25.67
2023-06-21T01:19:07.405Z,25.66
2023-06-21T01:20:07.485Z,25.67
2023-06-21T01:21:07.567Z,25.71
2023-06-21T01:22:07.537Z,25.76
2023-06-21T01:23:07.614Z,25.76
2023-06-21T01:24:07.762Z,25.73
2023-06-21T01:25:07.698Z,25.79
2023-06-21T01:26:07.771Z,25.75
2023-06-21T01:27:07.897Z,25.77
2023-06-21T01:28:07.851Z,25.73
2023-06-21T01:29:07.806Z,25.69
2023-06-21T01:30:07.817Z,25.74
2023-06-21T01:31:07.899Z,25.82
2023-06-21T01:32:07.847Z,25.90
2023-06-21T01:33:07.833Z,25.91
2023-06-21T01:34:07.792Z,25.80
2023-06-21T01:35:10.137Z,25.82
2023-06-21T01:36:07.792Z,25.89
2023-06-21T01:37:07.830Z,25.94
2023-06-21T01:38:08.638Z,25.96
2023-06-21T01:39:07.760Z,25.96
2023-06-21T01:40:07.737Z,25.93
2023-06-21T01:41:07.710Z,25.90
2023-06-21T01:42:07.705Z,25.87
2023-06-21T01:43:07.785Z,25.85
2023-06-21T01:44:07.770Z,25.69
2023-06-21T01:45:07.680Z,25.73
2023-06-21T01:46:07.884Z,25.79
2023-06-21T01:47:07.720Z,25.83
2023-06-21T01:48:07.725Z,25.78
2023-06-21T01:49:07.692Z,25.80
2023-06-21T01:50:07.685Z,25.86
2023-06-21T01:51:07.741Z,25.87
2023-06-21T01:52:07.679Z,25.84
2023-06-21T01:53:07.654Z,25.84
2023-06-21T01:54:07.732Z,25.70
2023-06-21T01:55:07.692Z,25.67
2023-06-21T01:56:07.738Z,25.66
2023-06-21T01:57:07.650Z,25.65
2023-06-21T01:58:07.666Z,25.67
2023-06-21T01:59:07.664Z,25.70
2023-06-21T02:00:07.687Z,25.73
2023-06-21T02:01:07.713Z,25.77
2023-06-21T02:02:07.745Z,25.77
2023-06-21T02:03:07.783Z,25.79
2023-06-21T02:04:07.796Z,25.78
2023-06-21T02:05:07.885Z,25.67
2023-06-21T02:06:07.914Z,25.54
2023-06-21T02:07:07.964Z,25.48
2023-06-21T02:08:08.070Z,25.41
2023-06-21T02:09:08.082Z,25.39
2023-06-21T02:10:08.119Z,25.18
2023-06-21T02:11:08.164Z,24.95
2023-06-21T02:12:08.206Z,24.76
2023-06-21T02:13:08.181Z,24.57
2023-06-21T02:14:08.201Z,24.41
2023-06-21T02:15:08.155Z,24.23
2023-06-21T02:16:08.105Z,24.16
2023-06-21T02:17:08.646Z,24.11
2023-06-21T02:18:08.145Z,24.08
2023-06-21T02:19:08.125Z,23.98
2023-06-21T02:20:08.166Z,23.97
2023-06-21T02:21:08.162Z,24.02
2023-06-21T02:22:08.120Z,24.09
2023-06-21T02:23:08.156Z,24.23
2023-06-21T02:24:08.177Z,24.32
2023-06-21T02:25:08.098Z,24.37
2023-06-21T02:26:08.139Z,24.27
2023-06-21T02:27:08.177Z,24.14
2023-06-21T02:28:08.110Z,24.19
2023-06-21T02:29:08.108Z,24.17
2023-06-21T02:30:08.106Z,24.06
2023-06-21T02:31:08.099Z,24.05
2023-06-21T02:32:08.031Z,24.13
2023-06-21T02:33:08.046Z,24.07
2023-06-21T02:34:08.121Z,24.08
2023-06-21T02:35:08.043Z,23.96
2023-06-21T02:36:08.055Z,23.91
2023-06-21T02:37:08.014Z,23.99
2023-06-21T02:38:08.152Z,24.02
2023-06-21T02:39:08.028Z,24.10
2023-06-21T02:40:08.032Z,24.18
2023-06-21T02:41:08.077Z,24.26
2023-06-21T02:42:08.664Z,24.34
2023-06-21T02:43:08.016Z,24.35
2023-06-21T02:44:07.994Z,24.27
2023-06-21T02:45:08.001Z,24.35
2023-06-21T02:46:08.078Z,24.36
2023-06-21T02:47:07.998Z,24.31
2023-06-21T02:48:08.140Z,24.19
2023-06-21T02:49:08.026Z,24.11
2023-06-21T02:50:07.980Z,24.14
2023-06-21T02:51:07.994Z,24.22
2023-06-21T02:52:08.014Z,24.23
2023-06-21T02:53:08.063Z,24.13
2023-06-21T02:54:08.075Z,24.12
2023-06-21T02:55:08.130Z,24.10
2023-06-21T02:56:08.159Z,24.12
2023-06-21T02:57:08.130Z,24.16
2023-06-21T02:58:08.143Z,24.18
2023-06-21T02:59:08.168Z,24.25
2023-06-21T03:00:08.125Z,24.25
2023-06-21T03:01:08.210Z,24.31
2023-06-21T03:02:08.190Z,24.33
2023-06-21T03:03:08.283Z,24.34
2023-06-21T03:04:08.141Z,24.35
2023-06-21T03:05:08.186Z,24.44
2023-06-21T03:06:08.103Z,24.40
2023-06-21T03:07:08.057Z,24.42
2023-06-21T03:08:08.090Z,24.26
2023-06-21T03:09:08.008Z,24.23
2023-06-21T03:10:08.020Z,24.33
2023-06-21T03:11:08.061Z,24.43
2023-06-21T03:12:08.031Z,24.35
2023-06-21T03:13:08.067Z,24.34
2023-06-21T03:14:08.043Z,24.42
2023-06-21T03:15:08.021Z,24.49
2023-06-21T03:16:08.018Z,24.42
2023-06-21T03:17:08.022Z,24.44
2023-06-21T03:18:08.053Z,24.48
2023-06-21T03:19:08.112Z,24.54
2023-06-21T03:20:08.056Z,24.58
2023-06-21T03:21:07.996Z,24.61
2023-06-21T03:22:07.976Z,24.62
2023-06-21T03:23:07.957Z,24.65
2023-06-21T03:24:07.994Z,24.69
2023-06-21T03:25:07.912Z,24.71
2023-06-21T03:26:07.921Z,24.74
2023-06-21T03:27:07.920Z,24.75
2023-06-21T03:28:07.928Z,24.78
2023-06-21T03:29:08.047Z,24.78
2023-06-21T03:30:07.940Z,24.78
2023-06-21T03:31:07.913Z,24.78
2023-06-21T03:32:07.928Z,24.79
2023-06-21T03:33:08.009Z,24.77
2023-06-21T03:34:07.943Z,24.74
2023-06-21T03:35:07.901Z,24.70
2023-06-21T03:36:07.922Z,24.70
2023-06-21T03:37:07.980Z,24.71
2023-06-21T03:38:08.053Z,24.75
2023-06-21T03:39:08.033Z,24.76
2023-06-21T03:40:08.179Z,24.76
2023-06-21T03:41:08.134Z,24.76
2023-06-21T03:42:08.218Z,24.79
2023-06-21T03:43:08.208Z,24.79
2023-06-21T03:44:08.256Z,24.77
2023-06-21T03:45:08.289Z,24.77
2023-06-21T03:46:08.266Z,24.71
2023-06-21T03:47:08.163Z,24.73
2023-06-21T03:48:08.250Z,24.67
2023-06-21T03:49:08.208Z,24.52
2023-06-21T03:50:08.213Z,24.52
2023-06-21T03:51:08.136Z,24.47
2023-06-21T03:52:09.171Z,24.49
2023-06-21T03:53:08.181Z,24.54
2023-06-21T03:54:08.166Z,24.60
2023-06-21T03:55:08.144Z,24.64
2023-06-21T03:56:08.183Z,24.65
2023-06-21T03:57:08.147Z,24.48
2023-06-21T03:58:08.122Z,24.31
2023-06-21T03:59:08.117Z,24.28
2023-06-21T04:00:08.121Z,24.20
2023-06-21T04:01:08.147Z,24.11
2023-06-21T04:02:08.126Z,23.99
2023-06-21T04:03:08.245Z,23.90
2023-06-21T04:04:08.189Z,23.82
2023-06-21T04:05:08.104Z,23.91
2023-06-21T04:06:08.043Z,24.01
2023-06-21T04:07:08.076Z,24.16
2023-06-21T04:08:08.229Z,24.27
2023-06-21T04:09:09.039Z,24.37
2023-06-21T04:10:07.989Z,24.43
2023-06-21T04:11:08.026Z,24.52
2023-06-21T04:12:08.075Z,24.55
2023-06-21T04:13:08.053Z,24.49
2023-06-21T04:14:08.052Z,24.36
2023-06-21T04:15:08.092Z,24.38
2023-06-21T04:16:08.028Z,24.27
2023-06-21T04:17:08.009Z,24.25
2023-06-21T04:18:08.128Z,24.36
2023-06-21T04:19:08.048Z,24.44
2023-06-21T04:20:08.032Z,24.48
2023-06-21T04:21:07.990Z,24.47
2023-06-21T04:22:07.973Z,24.53
2023-06-21T04:23:08.042Z,24.53
2023-06-21T04:24:08.008Z,24.56
2023-06-21T04:25:07.979Z,24.53
2023-06-21T04:26:07.909Z,24.60
2023-06-21T04:27:07.949Z,24.62
2023-06-21T04:28:08.063Z,24.62
2023-06-21T04:29:07.978Z,24.65
2023-06-21T04:30:07.942Z,24.72
2023-06-21T04:31:07.929Z,24.74
2023-06-21T04:32:08.005Z,24.75
2023-06-21T04:33:08.081Z,24.80
2023-06-21T04:34:08.093Z,24.82
2023-06-21T04:35:08.139Z,24.85
2023-06-21T04:36:08.234Z,24.85
2023-06-21T04:37:08.226Z,24.84
2023-06-21T04:38:08.323Z,24.86
2023-06-21T04:39:08.390Z,24.87
2023-06-21T04:40:16.964Z,24.87
2023-06-21T04:41:09.354Z,24.83
2023-06-21T04:42:08.339Z,24.71
2023-06-21T04:43:08.377Z,24.74
2023-06-21T04:44:08.326Z,24.68
2023-06-21T04:45:08.307Z,24.71
2023-06-21T04:46:08.386Z,24.68
2023-06-21T04:47:08.279Z,24.75
2023-06-21T04:48:08.336Z,24.80
2023-06-21T04:49:08.367Z,24.81
2023-06-21T04:50:20.258Z,24.63
2023-06-21T04:51:09.271Z,24.58
2023-06-21T04:52:08.238Z,24.51
2023-06-21T04:53:08.316Z,24.59
2023-06-21T04:54:08.352Z,24.62
2023-06-21T04:55:08.224Z,24.73
2023-06-21T04:56:08.261Z,24.86
2023-06-21T04:57:08.193Z,24.87
2023-06-21T04:58:08.321Z,24.85
2023-06-21T04:59:08.221Z,24.72
2023-06-21T05:01:37.891Z,24.59
2023-06-21T05:02:27.778Z,24.61
2023-06-21T05:03:27.846Z,24.71
2023-06-21T05:04:27.750Z,24.86
2023-06-21T05:05:27.699Z,25.03
2023-06-21T05:06:27.704Z,25.11
2023-06-21T05:07:27.705Z,25.11
2023-06-21T05:08:27.706Z,25.06
2023-06-21T05:09:27.713Z,25.11
2023-06-21T05:10:27.957Z,25.03
2023-06-21T05:11:27.693Z,24.96
2023-06-21T05:12:27.647Z,24.86
2023-06-21T05:13:27.711Z,24.85
2023-06-21T05:14:27.660Z,24.74
2023-06-21T05:15:27.665Z,24.64
2023-06-21T05:16:27.779Z,24.70
2023-06-21T05:17:27.663Z,24.69
2023-06-21T05:18:27.750Z,24.67
2023-06-21T05:19:27.677Z,24.47
2023-06-21T05:20:27.888Z,24.47
2023-06-21T05:21:27.673Z,24.57
2023-06-21T05:22:27.646Z,24.57
2023-06-21T05:23:28.007Z,24.63
2023-06-21T05:24:28.923Z,24.67
2023-06-21T05:25:27.891Z,24.62
2023-06-21T05:26:27.709Z,24.72
2023-06-21T05:27:27.605Z,24.86
2023-06-21T05:28:27.630Z,24.96
2023-06-21T05:29:27.554Z,24.91
2023-06-21T05:30:27.760Z,25.00
2023-06-21T05:31:27.740Z,25.13
2023-06-21T05:32:27.677Z,25.20
2023-06-21T05:33:28.070Z,25.25
2023-06-21T05:34:27.614Z,25.14
2023-06-21T05:35:27.661Z,25.16
2023-06-21T05:36:27.698Z,25.06
2023-06-21T05:37:27.847Z,25.12
2023-06-21T05:38:27.602Z,25.19
2023-06-21T05:39:28.422Z,25.26
2023-06-21T05:40:27.915Z,25.25
2023-06-21T05:41:28.430Z,25.16
2023-06-21T05:42:27.572Z,25.24
2023-06-21T05:43:28.117Z,25.29
2023-06-21T05:44:27.502Z,25.33
2023-06-21T05:46:57.721Z,25.25
2023-06-21T05:47:46.986Z,25.28
2023-06-21T05:48:46.985Z,25.23
2023-06-21T05:49:47.020Z,25.33
2023-06-21T05:50:47.952Z,25.25
2023-06-21T05:51:47.340Z,25.03
2023-06-21T05:52:48.073Z,24.91
2023-06-21T05:53:47.278Z,24.92
2023-06-21T05:54:46.886Z,24.83
2023-06-21T05:55:47.085Z,24.82
2023-06-21T05:56:46.929Z,24.98
2023-06-21T05:57:46.927Z,25.15
2023-06-21T05:58:47.893Z,25.15
2023-06-21T05:59:46.969Z,25.11
2023-06-21T06:00:46.889Z,25.17
2023-06-21T06:01:46.866Z,25.34
2023-06-21T06:02:47.061Z,25.30
2023-06-21T06:03:47.554Z,25.23
2023-06-21T06:04:46.825Z,25.28
2023-06-21T06:05:46.931Z,25.28
2023-06-21T06:06:46.931Z,25.19
2023-06-21T06:07:47.037Z,25.24
2023-06-21T06:08:46.749Z,25.37
2023-06-21T06:09:46.883Z,25.43
2023-06-21T06:10:46.770Z,25.54
2023-06-21T06:11:46.894Z,25.72
2023-06-21T06:12:46.995Z,25.89
2023-06-21T06:13:46.978Z,25.95
2023-06-21T06:14:47.703Z,26.04
2023-06-21T06:15:47.418Z,26.17
2023-06-21T06:16:46.896Z,26.23
2023-06-21T06:17:46.835Z,26.36
2023-06-21T06:18:46.926Z,26.46
2023-06-21T06:19:47.250Z,26.48
2023-06-21T06:20:48.682Z,26.54
2023-06-21T06:21:47.080Z,26.66
2023-06-21T06:22:47.145Z,26.76
2023-06-21T06:23:46.937Z,26.85
2023-06-21T06:24:46.977Z,26.87
2023-06-21T06:25:47.197Z,26.89
2023-06-21T06:26:47.787Z,26.89
2023-06-21T06:27:47.059Z,27.00
2023-06-21T06:28:47.101Z,27.05
2023-06-21T06:29:47.543Z,27.05
2023-06-21T06:30:47.966Z,27.07
2023-06-21T06:31:47.345Z,27.08
2023-06-21T06:32:47.088Z,27.11
2023-06-21T06:33:48.040Z,27.21
2023-06-21T06:34:47.244Z,27.27
2023-06-21T06:35:47.352Z,27.30
2023-06-21T06:36:56.191Z,27.32
2023-06-21T06:43:13.310Z,27.47
2023-06-21T06:44:04.393Z,27.60
2023-06-21T06:45:04.470Z,27.69
2023-06-21T06:46:04.513Z,27.77
2023-06-21T06:47:04.281Z,27.84
2023-06-21T06:48:04.387Z,27.86
2023-06-21T06:49:04.315Z,27.90
2023-06-21T06:50:04.246Z,28.00
2023-06-21T06:51:04.574Z,28.11
2023-06-21T06:52:04.287Z,28.20
2023-06-21T06:53:04.898Z,28.24
2023-06-21T06:54:04.517Z,28.22
2023-06-21T06:55:04.454Z,28.29
2023-06-21T06:56:04.601Z,28.22
2023-06-21T06:57:04.494Z,28.17
2023-06-21T06:58:06.569Z,28.18
2023-06-21T06:59:04.514Z,28.20
2023-06-21T07:00:04.619Z,28.28
2023-06-21T07:01:05.027Z,28.36
2023-06-21T07:02:05.530Z,28.43
2023-06-21T07:03:04.729Z,28.44
2023-06-21T07:04:04.852Z,28.41
2023-06-21T07:05:04.787Z,28.47
2023-06-21T07:06:04.852Z,28.55
2023-06-21T07:07:06.293Z,28.54
2023-06-21T07:08:04.882Z,28.61
2023-06-21T07:09:04.781Z,28.68
2023-06-21T07:10:04.795Z,28.72
2023-06-21T07:11:05.009Z,28.78
2023-06-21T07:12:04.832Z,28.87
2023-06-21T07:13:04.828Z,28.65
2023-06-21T07:14:04.802Z,28.61
2023-06-21T07:15:05.329Z,28.59
2023-06-21T07:16:05.144Z,28.65
2023-06-21T07:17:04.937Z,28.75
2023-06-21T07:18:04.986Z,28.81
2023-06-21T07:19:04.754Z,28.88
2023-06-21T07:20:04.859Z,28.91
2023-06-21T07:21:04.990Z,28.87
2023-06-21T07:22:04.810Z,28.87
2023-06-21T07:23:05.311Z,28.94
2023-06-21T07:24:04.756Z,28.99
2023-06-21T07:25:04.786Z,28.99
2023-06-21T07:26:04.995Z,28.95
2023-06-21T07:27:04.717Z,28.99
2023-06-21T07:28:05.532Z,29.03
2023-06-21T07:29:04.742Z,29.09
2023-06-21T07:30:05.366Z,29.18
2023-06-21T07:31:04.773Z,29.13
2023-06-21T07:32:05.022Z,29.12
2023-06-21T07:33:05.622Z,29.18
2023-06-21T07:34:07.948Z,29.29
2023-06-21T07:35:05.823Z,29.40
2023-06-21T07:36:04.744Z,29.52
2023-06-21T07:37:04.971Z,29.68
2023-06-21T07:38:04.713Z,29.60
2023-06-21T07:39:05.888Z,29.58
2023-06-21T07:40:04.800Z,29.66
2023-06-21T07:41:04.720Z,29.73
2023-06-21T07:42:13.750Z,29.76
2023-06-21T07:43:04.627Z,29.80
2023-06-21T07:44:04.751Z,29.79
2023-06-21T07:45:05.507Z,29.80
2023-06-21T07:46:14.946Z,29.58
2023-06-21T07:47:04.663Z,29.55
2023-06-21T07:48:04.698Z,29.66
2023-06-21T07:49:04.848Z,29.55
2023-06-21T07:50:17.091Z,29.55
2023-06-21T07:51:05.772Z,29.62
2023-06-21T07:52:04.664Z,29.70
2023-06-21T07:53:04.607Z,29.80
2023-06-21T07:54:04.880Z,29.75
2023-06-21T07:55:04.561Z,29.53
2023-06-21T07:56:04.564Z,29.46
2023-06-21T07:57:04.651Z,29.53
2023-06-21T07:58:04.527Z,29.62
2023-06-21T07:59:04.595Z,29.74
2023-06-21T08:00:04.542Z,29.82
2023-06-21T08:01:04.572Z,29.86
2023-06-21T08:02:04.589Z,29.95
2023-06-21T08:03:04.677Z,30.05
2023-06-21T08:04:04.768Z,29.98
2023-06-21T08:05:04.717Z,29.99
2023-06-21T08:06:04.736Z,30.10
2023-06-21T08:07:05.458Z,30.21
2023-06-21T08:08:04.861Z,30.30
2023-06-21T08:09:04.872Z,30.33
2023-06-21T08:10:04.871Z,30.35
2023-06-21T08:11:04.880Z,30.44
2023-06-21T08:12:04.985Z,30.54
2023-06-21T08:13:05.023Z,30.57
2023-06-21T08:14:05.974Z,30.65
2023-06-21T08:15:05.014Z,30.59
2023-06-21T08:16:05.015Z,30.65
2023-06-21T08:17:05.064Z,30.65
2023-06-21T08:18:05.080Z,30.55
2023-06-21T08:19:05.096Z,30.62
2023-06-21T08:20:05.148Z,30.73
2023-06-21T08:21:05.155Z,30.89
2023-06-21T08:22:05.157Z,30.91
2023-06-21T08:23:05.135Z,31.00
2023-06-21T08:24:05.265Z,31.06
2023-06-21T08:25:05.303Z,31.02
2023-06-21T08:26:05.400Z,31.07
2023-06-21T08:27:05.454Z,31.14
2023-06-21T08:28:05.553Z,31.29
2023-06-21T08:29:05.620Z,31.45
2023-06-21T08:30:05.636Z,31.47
2023-06-21T08:31:05.686Z,31.42
2023-06-21T08:32:06.199Z,31.41
2023-06-21T08:33:05.830Z,31.48
2023-06-21T08:34:05.802Z,31.51
2023-06-21T08:35:05.824Z,31.37
2023-06-21T08:36:05.819Z,31.45
2023-06-21T08:37:06.149Z,31.54
2023-06-21T08:38:18.378Z,31.60
2023-06-21T08:39:05.981Z,31.61
2023-06-21T08:40:06.002Z,31.56
2023-06-21T08:41:05.916Z,31.57
2023-06-21T08:42:06.000Z,31.68
2023-06-21T08:43:05.946Z,31.74
2023-06-21T08:44:05.968Z,31.87
2023-06-21T08:45:05.886Z,31.83
2023-06-21T08:46:08.227Z,31.85
2023-06-21T08:47:06.062Z,31.93
2023-06-21T08:48:05.934Z,32.02
2023-06-21T08:49:05.890Z,32.08
2023-06-21T08:50:05.899Z,31.77
2023-06-21T08:51:05.979Z,31.45
2023-06-21T08:52:06.019Z,31.56
2023-06-21T08:53:05.884Z,31.72
2023-06-21T08:54:05.931Z,31.83
2023-06-21T08:55:05.869Z,31.94
2023-06-21T08:56:05.879Z,31.94
2023-06-21T08:57:06.055Z,32.03
2023-06-21T08:58:07.163Z,32.13
2023-06-21T08:59:06.525Z,32.28
2023-06-21T09:00:05.774Z,32.40
2023-06-21T09:01:05.861Z,32.49
2023-06-21T09:02:06.049Z,32.47
2023-06-21T09:03:06.052Z,32.53
2023-06-21T09:04:06.096Z,32.66
2023-06-21T09:05:05.856Z,32.62
2023-06-21T09:06:05.782Z,32.62
2023-06-21T09:07:05.813Z,32.37
2023-06-21T09:08:07.437Z,32.18
2023-06-21T09:09:06.115Z,32.03
2023-06-21T09:10:05.787Z,32.12
2023-06-21T09:11:05.727Z,32.24
2023-06-21T09:12:05.772Z,32.39
2023-06-21T09:13:05.708Z,32.49
2023-06-21T09:14:07.242Z,32.54
2023-06-21T09:15:05.747Z,32.65
2023-06-21T09:16:05.729Z,32.70
2023-06-21T09:17:05.722Z,32.73
2023-06-21T09:18:06.093Z,32.75
2023-06-21T09:19:05.741Z,32.75
2023-06-21T09:20:05.686Z,32.80
2023-06-21T09:21:05.669Z,32.86
2023-06-21T09:22:05.711Z,32.85
2023-06-21T09:23:05.686Z,32.55
2023-06-21T09:24:05.673Z,32.13
2023-06-21T09:25:05.661Z,32.15
2023-06-21T09:26:05.646Z,32.31
2023-06-21T09:27:05.676Z,32.50
2023-06-21T09:28:06.025Z,32.57
2023-06-21T09:29:05.602Z,32.67
2023-06-21T09:30:29.583Z,32.68
2023-06-21T09:31:06.665Z,32.73
2023-06-21T09:32:05.640Z,32.81
2023-06-21T09:33:05.763Z,32.86
2023-06-21T09:34:05.683Z,32.96
2023-06-21T09:35:05.670Z,33.07
2023-06-21T09:36:05.747Z,33.15
2023-06-21T09:37:05.618Z,33.06
2023-06-21T09:38:06.106Z,32.91
2023-06-21T09:39:05.584Z,32.91
2023-06-21T09:40:05.610Z,32.86
2023-06-21T09:41:05.741Z,32.93
2023-06-21T09:42:05.592Z,32.87
2023-06-21T09:43:06.047Z,32.91
2023-06-21T09:44:05.612Z,32.99
2023-06-21T09:45:05.704Z,33.13
2023-06-21T09:46:05.744Z,33.24
2023-06-21T09:47:05.738Z,33.36
2023-06-21T09:48:06.107Z,33.45
2023-06-21T09:49:05.787Z,33.46
2023-06-21T09:50:05.817Z,33.48
2023-06-21T09:51:05.901Z,33.49
2023-06-21T09:52:05.902Z,33.26
2023-06-21T09:53:05.938Z,33.06
2023-06-21T09:54:06.001Z,32.95
2023-06-21T09:55:06.013Z,33.02
2023-06-21T09:56:05.999Z,33.19
2023-06-21T09:57:06.005Z,33.29
2023-06-21T09:58:06.033Z,33.16
2023-06-21T09:59:06.142Z,33.17
2023-06-21T10:00:06.136Z,33.20
2023-06-21T10:01:06.140Z,33.09
2023-06-21T10:02:06.157Z,33.04
2023-06-21T10:03:06.658Z,32.99
2023-06-21T10:04:07.196Z,33.16
2023-06-21T10:05:06.186Z,33.30
2023-06-21T10:06:06.240Z,33.41
2023-06-21T10:07:06.202Z,33.33
2023-06-21T10:08:06.589Z,33.29
2023-06-21T10:09:06.353Z,33.31
2023-06-21T10:10:06.323Z,33.16
2023-06-21T10:11:06.392Z,33.11
2023-06-21T10:12:06.373Z,33.09
2023-06-21T10:13:06.551Z,33.20
2023-06-21T10:14:06.443Z,33.24
2023-06-21T10:15:06.476Z,33.33
2023-06-21T10:16:06.459Z,33.54
2023-06-21T10:17:06.532Z,33.68
2023-06-21T10:18:07.127Z,33.74
2023-06-21T10:19:06.584Z,33.78
2023-06-21T10:20:06.694Z,33.77
2023-06-21T10:21:06.825Z,33.81
2023-06-21T10:22:06.783Z,33.93
2023-06-21T10:23:06.933Z,34.03
2023-06-21T10:24:06.856Z,34.10
2023-06-21T10:25:06.977Z,34.24
2023-06-21T10:26:07.030Z,34.20
2023-06-21T10:27:07.059Z,33.92
2023-06-21T10:28:07.640Z,33.92
2023-06-21T10:29:07.151Z,34.03
2023-06-21T10:30:07.196Z,34.13
2023-06-21T10:31:07.244Z,34.01
2023-06-21T10:32:07.298Z,34.04
2023-06-21T10:33:07.663Z,33.98
2023-06-21T10:34:07.390Z,33.92
2023-06-21T10:35:07.370Z,33.97
2023-06-21T10:36:07.407Z,34.00
2023-06-21T10:37:07.626Z,34.02
2023-06-21T10:38:07.474Z,34.00
2023-06-21T10:39:07.611Z,34.10
2023-06-21T10:40:11.672Z,34.11
2023-06-21T10:41:07.639Z,34.07
2023-06-21T10:42:07.413Z,33.98
2023-06-21T10:43:07.366Z,33.95
2023-06-21T10:44:07.606Z,34.14
2023-06-21T10:45:07.377Z,34.32
2023-06-21T10:46:07.449Z,34.33
2023-06-21T10:47:07.371Z,34.49
2023-06-21T10:48:07.387Z,34.57
2023-06-21T10:49:07.618Z,34.62
2023-06-21T10:50:07.327Z,34.66
2023-06-21T10:51:07.331Z,34.79
2023-06-21T10:52:07.432Z,34.99
2023-06-21T10:53:07.427Z,34.96
2023-06-21T10:54:07.555Z,34.99
2023-06-21T10:55:07.459Z,34.90
2023-06-21T10:56:07.407Z,34.97
2023-06-21T10:57:07.460Z,35.05
2023-06-21T10:58:07.667Z,34.96
2023-06-21T10:59:07.533Z,35.08
2023-06-21T11:00:07.578Z,35.13
2023-06-21T11:01:07.614Z,35.14
2023-06-21T11:02:07.631Z,35.12
2023-06-21T11:03:07.735Z,35.21
2023-06-21T11:04:08.118Z,35.17
2023-06-21T11:05:07.821Z,34.79
2023-06-21T11:06:07.777Z,34.52
2023-06-21T11:07:07.829Z,34.45
2023-06-21T11:08:07.825Z,34.55
2023-06-21T11:09:08.099Z,34.77
2023-06-21T11:10:07.800Z,34.91
2023-06-21T11:11:07.775Z,34.96
2023-06-21T11:12:07.999Z,35.14
2023-06-21T11:13:08.923Z,35.23
2023-06-21T11:14:07.791Z,35.12
2023-06-21T11:15:07.794Z,35.27
2023-06-21T11:16:07.824Z,35.41
2023-06-21T11:17:07.759Z,35.50
2023-06-21T11:18:07.797Z,35.55
2023-06-21T11:19:07.762Z,35.65
2023-06-21T11:20:07.738Z,35.74
2023-06-21T11:21:07.760Z,35.63
2023-06-21T11:22:09.004Z,35.68
2023-06-21T11:23:08.804Z,35.51
2023-06-21T11:24:07.880Z,35.53
2023-06-21T11:25:07.818Z,35.66
2023-06-21T11:26:07.675Z,35.75
2023-06-21T11:27:07.696Z,35.90
2023-06-21T11:28:07.690Z,35.76
2023-06-21T11:29:08.134Z,35.57
2023-06-21T11:30:07.744Z,35.66
2023-06-21T11:31:07.944Z,35.69
2023-06-21T11:32:08.448Z,35.65
2023-06-21T11:33:07.744Z,35.47
2023-06-21T11:34:08.080Z,35.25
2023-06-21T11:35:07.733Z,35.35
2023-06-21T11:36:08.574Z,35.63
2023-06-21T11:37:07.727Z,35.52
2023-06-21T11:38:07.706Z,35.60
2023-06-21T11:39:07.714Z,35.62
2023-06-21T11:40:07.698Z,35.30
2023-06-21T11:41:07.673Z,34.99
2023-06-21T11:42:07.669Z,34.89
2023-06-21T11:43:07.686Z,34.85
2023-06-21T11:44:07.733Z,34.72
2023-06-21T11:45:07.737Z,34.74
2023-06-21T11:46:07.761Z,34.76
2023-06-21T11:47:07.734Z,34.81
2023-06-21T11:48:07.887Z,34.92
2023-06-21T11:49:08.577Z,34.97
2023-06-21T11:50:07.780Z,35.18
2023-06-21T11:51:07.852Z,35.29
2023-06-21T11:52:07.848Z,35.53
2023-06-21T11:53:07.860Z,35.56
2023-06-21T11:54:07.891Z,35.57
2023-06-21T11:55:07.854Z,35.74
2023-06-21T11:56:07.896Z,35.92
2023-06-21T11:57:07.889Z,36.04
2023-06-21T11:58:07.865Z,36.06
2023-06-21T11:59:07.852Z,35.88
2023-06-21T12:00:07.883Z,35.62
2023-06-21T12:01:07.824Z,35.45
2023-06-21T12:02:07.829Z,35.39
2023-06-21T12:03:08.030Z,35.46
2023-06-21T12:04:07.893Z,35.69
2023-06-21T12:05:08.091Z,35.76
2023-06-21T12:06:07.809Z,35.87
2023-06-21T12:07:07.782Z,36.05
2023-06-21T12:08:07.814Z,36.15
2023-06-21T12:09:07.849Z,36.21
2023-06-21T12:10:07.845Z,36.09
2023-06-21T12:11:07.859Z,35.90
2023-06-21T12:12:07.951Z,35.93
2023-06-21T12:13:07.934Z,36.17
2023-06-21T12:14:07.929Z,36.34
2023-06-21T12:15:07.958Z,36.22
2023-06-21T12:16:08.103Z,36.05
2023-06-21T12:17:07.938Z,35.83
2023-06-21T12:18:08.014Z,35.55
2023-06-21T12:19:07.954Z,35.45
2023-06-21T12:20:08.037Z,35.59
2023-06-21T12:21:08.117Z,35.82
2023-06-21T12:22:08.048Z,36.09
2023-06-21T12:23:08.155Z,35.87
2023-06-21T12:24:08.211Z,35.76
2023-06-21T12:25:08.264Z,35.72
2023-06-21T12:26:08.312Z,35.76
2023-06-21T12:27:08.321Z,35.73
2023-06-21T12:28:08.382Z,35.63
2023-06-21T12:29:08.487Z,35.59
2023-06-21T12:30:08.522Z,35.49
2023-06-21T12:31:08.665Z,35.28
2023-06-21T12:32:08.617Z,35.29
2023-06-21T12:33:08.687Z,35.28
2023-06-21T12:34:08.704Z,34.99
2023-06-21T12:35:08.693Z,34.98
2023-06-21T12:36:08.758Z,34.96
2023-06-21T12:37:08.725Z,34.94
2023-06-21T12:38:08.723Z,35.16
2023-06-21T12:39:08.762Z,35.36
2023-06-21T12:40:08.844Z,35.30
2023-06-21T12:41:08.843Z,35.33
2023-06-21T12:42:08.851Z,35.27
2023-06-21T12:43:08.908Z,35.26
2023-06-21T12:44:08.966Z,35.27
2023-06-21T12:45:08.973Z,35.25
2023-06-21T12:46:08.988Z,35.03
2023-06-21T12:47:08.976Z,35.04
2023-06-21T12:48:09.058Z,35.11
2023-06-21T12:49:09.054Z,35.17
2023-06-21T12:50:09.128Z,35.21
2023-06-21T12:51:11.196Z,35.21
2023-06-21T12:52:09.135Z,35.13
2023-06-21T12:53:09.175Z,35.12
2023-06-21T12:54:09.239Z,34.90
2023-06-21T12:55:09.317Z,34.91
2023-06-21T12:56:09.310Z,35.01
2023-06-21T12:57:09.366Z,35.15
2023-06-21T12:58:09.443Z,35.25
2023-06-21T12:59:09.465Z,35.37
2023-06-21T13:00:09.538Z,35.48